Terminal Aerodrome Forecast
Issued by NWS Albuquerque, NM

Home | Current Version | Previous Version | Text Only | Print | Product List | Glossary On
Versions: 1 2 3 4 5 6 7 8 9 10 11 12 13 14
000
FTUS45 KABQ 232338
TAFABQ
TAF
KABQ 232338Z 2400/2424 34009KT P6SM SCT120
      TEMPO 2401/2403 28010G20KT
     FM240400 VRB05KT P6SM FEW110 SCT200
     FM242300 09015KT P6SM VCSH SCT100=

USA.gov is the U.S. government's official web portal to all federal, state and local government web resources and services.